createdAt,value
2017-12-03T00:02:57.806Z,-3.70
2017-12-03T00:06:07.932Z,-3.70
2017-12-03T00:09:18.319Z,-3.70
2017-12-03T00:12:28.583Z,-3.70
2017-12-03T00:15:39.063Z,-3.70
2017-12-03T00:18:49.161Z,-3.70
2017-12-03T00:21:59.281Z,-3.70
2017-12-03T00:25:09.925Z,-3.70
2017-12-03T00:28:20.078Z,-3.70
2017-12-03T00:31:29.942Z,-3.60
2017-12-03T00:34:40.457Z,-3.70
2017-12-03T00:37:50.347Z,-3.70
2017-12-03T00:41:00.111Z,-3.70
2017-12-03T00:44:11.038Z,-3.70
2017-12-03T00:47:20.908Z,-3.80
2017-12-03T00:50:30.763Z,-3.80
2017-12-03T00:53:40.680Z,-3.90
2017-12-03T00:56:50.392Z,-3.90
2017-12-03T01:00:00.622Z,-3.80
2017-12-03T01:03:10.688Z,-3.90
2017-12-03T01:06:21.056Z,-4.00
2017-12-03T01:09:31.040Z,-4.00
2017-12-03T01:12:41.049Z,-3.90
2017-12-03T01:15:51.065Z,-4.00
2017-12-03T01:19:01.068Z,-4.10
2017-12-03T01:22:10.992Z,-4.10
2017-12-03T01:25:20.648Z,-4.10
2017-12-03T01:28:30.639Z,-4.10
2017-12-03T01:31:41.102Z,-4.10
2017-12-03T01:34:50.858Z,-4.10
2017-12-03T01:38:00.909Z,-4.10
2017-12-03T01:41:10.857Z,-4.10
2017-12-03T01:44:20.668Z,-4.10
2017-12-03T01:47:30.547Z,-4.10
2017-12-03T01:50:40.501Z,-4.10
2017-12-03T01:53:51.256Z,-4.20
2017-12-03T01:57:01.495Z,-4.20
2017-12-03T02:00:11.474Z,-4.10
2017-12-03T02:03:22.053Z,-4.20
2017-12-03T02:06:32.120Z,-4.20
2017-12-03T02:09:43.043Z,-4.20
2017-12-03T02:12:53.265Z,-4.30
2017-12-03T02:16:03.874Z,-4.30
2017-12-03T02:19:13.750Z,-4.30
2017-12-03T02:22:23.525Z,-4.40
2017-12-03T02:25:33.881Z,-4.40
2017-12-03T02:28:44.813Z,-4.30
2017-12-03T02:31:55.233Z,-4.30
2017-12-03T02:35:05.921Z,-4.40
2017-12-03T02:38:16.867Z,-4.50
2017-12-03T02:41:26.988Z,-4.50
2017-12-03T02:44:37.107Z,-4.50
2017-12-03T02:47:47.583Z,-4.50
2017-12-03T02:50:57.446Z,-4.50
2017-12-03T02:54:07.159Z,-4.50
2017-12-03T02:57:16.931Z,-4.70
2017-12-03T03:00:28.827Z,-4.70
2017-12-03T03:03:40.271Z,-4.80
2017-12-03T03:06:50.795Z,-4.80
2017-12-03T03:10:00.821Z,-4.80
2017-12-03T03:13:11.461Z,-4.80
2017-12-03T03:16:21.258Z,-4.80
2017-12-03T03:19:31.364Z,-4.90
2017-12-03T03:22:40.920Z,-4.90
2017-12-03T03:25:51.101Z,-5.00
2017-12-03T03:29:01.330Z,-5.00
2017-12-03T03:32:11.770Z,-5.00
2017-12-03T03:35:21.489Z,-5.00
2017-12-03T03:38:31.270Z,-5.00
2017-12-03T03:41:41.568Z,-5.00
2017-12-03T03:44:52.153Z,-5.00
2017-12-03T03:48:01.922Z,-5.00
2017-12-03T03:51:12.439Z,-5.00
2017-12-03T03:54:22.537Z,-5.10
2017-12-03T03:57:32.323Z,-5.00
2017-12-03T04:00:42.150Z,-5.00
2017-12-03T04:03:51.839Z,-5.00
2017-12-03T04:07:02.436Z,-5.00
2017-12-03T04:10:12.410Z,-5.00
2017-12-03T04:13:22.558Z,-4.90
2017-12-03T04:16:32.649Z,-5.00
2017-12-03T04:19:42.663Z,-5.00
2017-12-03T04:22:52.626Z,-5.00
2017-12-03T04:26:02.358Z,-5.00
2017-12-03T04:29:12.692Z,-5.00
2017-12-03T04:32:23.706Z,-5.00
2017-12-03T04:35:34.539Z,-5.10
2017-12-03T04:38:44.828Z,-5.10
2017-12-03T04:41:54.357Z,-5.10
2017-12-03T04:45:04.759Z,-5.10
2017-12-03T04:48:15.197Z,-5.10
2017-12-03T04:51:25.247Z,-5.20
2017-12-03T04:54:35.986Z,-5.20
2017-12-03T04:57:46.111Z,-5.20
2017-12-03T05:00:56.171Z,-5.20
2017-12-03T05:04:07.466Z,-5.10
2017-12-03T05:07:17.241Z,-5.10
2017-12-03T05:10:28.078Z,-5.10
2017-12-03T05:13:37.798Z,-5.10
2017-12-03T05:16:47.783Z,-5.10
2017-12-03T05:19:57.779Z,-5.10
2017-12-03T05:23:08.225Z,-5.10
2017-12-03T05:26:18.698Z,-5.10
2017-12-03T05:29:29.017Z,-5.10
2017-12-03T05:32:39.161Z,-5.00
2017-12-03T05:35:48.917Z,-5.00
2017-12-03T05:38:58.692Z,-5.00
2017-12-03T05:42:08.586Z,-5.10
2017-12-03T05:45:18.277Z,-5.20
2017-12-03T05:48:29.587Z,-5.30
2017-12-03T05:51:40.454Z,-5.30
2017-12-03T05:54:51.152Z,-5.10
2017-12-03T05:58:01.518Z,-5.00
2017-12-03T06:04:22.438Z,-5.00
2017-12-03T06:07:32.163Z,-4.90
2017-12-03T06:10:41.959Z,-4.90
2017-12-03T06:13:52.086Z,-4.80
2017-12-03T06:17:01.728Z,-4.80
2017-12-03T06:20:12.851Z,-4.60
2017-12-03T06:23:24.226Z,-4.50
2017-12-03T06:26:33.801Z,-4.60
2017-12-03T06:29:43.997Z,-4.50
2017-12-03T06:32:53.679Z,-4.40
2017-12-03T06:36:03.744Z,-4.30
2017-12-03T06:39:13.835Z,-4.30
2017-12-03T06:42:24.165Z,-4.20
2017-12-03T06:45:34.154Z,-4.20
2017-12-03T06:48:43.987Z,-4.20
2017-12-03T06:51:53.971Z,-4.10
2017-12-03T06:55:03.760Z,-4.10
2017-12-03T06:58:14.283Z,-4.00
2017-12-03T07:01:25.665Z,-3.90
2017-12-03T07:04:37.057Z,-3.90
2017-12-03T07:07:47.442Z,-3.80
2017-12-03T07:10:57.592Z,-3.80
2017-12-03T07:14:08.532Z,-3.60
2017-12-03T07:17:18.893Z,-3.60
2017-12-03T07:20:30.209Z,-3.50
2017-12-03T07:23:39.960Z,-3.50
2017-12-03T07:26:49.937Z,-3.50
2017-12-03T07:29:59.907Z,-3.40
2017-12-03T07:33:09.899Z,-3.40
2017-12-03T07:36:19.694Z,-3.30
2017-12-03T07:39:31.860Z,-3.20
2017-12-03T07:42:41.573Z,-3.20
2017-12-03T07:45:52.374Z,-3.10
2017-12-03T07:49:02.082Z,-3.10
2017-12-03T07:52:12.061Z,-3.10
2017-12-03T07:55:21.540Z,-3.10
2017-12-03T07:58:31.796Z,-3.00
2017-12-03T08:01:41.220Z,-3.00
2017-12-03T08:04:51.546Z,-3.00
2017-12-03T08:08:01.026Z,-3.00
2017-12-03T08:11:11.457Z,-2.90
2017-12-03T08:14:21.258Z,-2.80
2017-12-03T08:17:32.420Z,-2.80
2017-12-03T08:20:42.914Z,-2.90
2017-12-03T08:23:54.514Z,-2.80
2017-12-03T08:27:04.435Z,-2.90
2017-12-03T08:30:14.125Z,-2.80
2017-12-03T08:33:24.669Z,-2.80
2017-12-03T08:36:34.590Z,-2.80
2017-12-03T08:39:44.311Z,-2.80
2017-12-03T08:43:02.197Z,-2.80
2017-12-03T08:46:13.036Z,-2.80
2017-12-03T08:49:23.918Z,-2.70
2017-12-03T08:52:34.304Z,-2.70
2017-12-03T08:55:44.890Z,-2.70
2017-12-03T08:58:56.213Z,-2.70
2017-12-03T09:02:06.582Z,-2.70
2017-12-03T09:05:16.368Z,-2.60
2017-12-03T09:08:26.278Z,-2.60
2017-12-03T09:11:36.357Z,-2.60
2017-12-03T09:14:47.851Z,-2.50
2017-12-03T09:17:58.189Z,-2.50
2017-12-03T09:21:08.427Z,-2.50
2017-12-03T09:24:18.123Z,-2.40
2017-12-03T09:27:28.550Z,-2.40
2017-12-03T09:30:38.929Z,-2.30
2017-12-03T09:33:49.231Z,-2.30
2017-12-03T09:36:59.847Z,-2.20
2017-12-03T09:40:10.004Z,-2.20
2017-12-03T09:43:20.783Z,-2.10
2017-12-03T09:46:31.050Z,-2.10
2017-12-03T09:49:41.681Z,-2.10
2017-12-03T09:52:52.496Z,-2.00
2017-12-03T09:56:02.168Z,-2.00
2017-12-03T09:59:12.348Z,-1.90
2017-12-03T10:02:22.021Z,-1.90
2017-12-03T10:05:31.936Z,-1.80
2017-12-03T10:08:42.767Z,-1.70
2017-12-03T10:11:52.675Z,-1.70
2017-12-03T10:15:02.832Z,-1.70
2017-12-03T10:18:13.233Z,-1.60
2017-12-03T10:21:23.120Z,-1.60
2017-12-03T10:24:33.489Z,-1.60
2017-12-03T10:27:43.812Z,-1.60
2017-12-03T10:30:53.917Z,-1.50
2017-12-03T10:34:03.951Z,-1.50
2017-12-03T10:37:13.652Z,-1.40
2017-12-03T10:40:24.144Z,-1.40
2017-12-03T10:43:34.315Z,-1.40
2017-12-03T10:46:45.099Z,-1.40
2017-12-03T10:49:55.207Z,-1.40
2017-12-03T10:53:05.859Z,-1.40
2017-12-03T10:56:15.851Z,-1.40
2017-12-03T10:59:26.689Z,-1.30
2017-12-03T11:02:36.538Z,-1.20
2017-12-03T11:05:46.190Z,-1.20
2017-12-03T11:08:56.246Z,-1.20
2017-12-03T11:12:06.659Z,-1.20
2017-12-03T11:15:19.053Z,-1.10
2017-12-03T11:18:28.950Z,-1.10
2017-12-03T11:21:39.286Z,-1.20
2017-12-03T11:24:50.254Z,-1.20
2017-12-03T11:28:00.056Z,-1.20
2017-12-03T11:31:09.844Z,-1.20
2017-12-03T11:34:20.654Z,-1.20
2017-12-03T11:37:30.469Z,-1.20
2017-12-03T11:40:40.515Z,-1.20
2017-12-03T11:43:50.551Z,-1.10
2017-12-03T11:47:00.355Z,-1.10
2017-12-03T11:50:10.170Z,-1.10
2017-12-03T11:53:20.058Z,-1.10
2017-12-03T11:56:30.050Z,-1.00
2017-12-03T11:59:40.844Z,-0.90
2017-12-03T12:02:51.613Z,-0.90
2017-12-03T12:06:02.405Z,-0.90
2017-12-03T12:09:12.678Z,-0.90
2017-12-03T12:12:22.851Z,-0.90
2017-12-03T12:15:33.520Z,-0.90
2017-12-03T12:18:43.946Z,-0.90
2017-12-03T12:21:54.205Z,-0.90
2017-12-03T12:25:04.755Z,-0.80
2017-12-03T12:28:14.844Z,-0.80
2017-12-03T12:31:24.701Z,-0.80
2017-12-03T12:37:46.364Z,-0.80
2017-12-03T12:40:56.283Z,-0.70
2017-12-03T12:44:05.986Z,-0.60
2017-12-03T12:47:16.102Z,-0.60
2017-12-03T12:50:25.722Z,-0.60
2017-12-03T12:53:35.678Z,-0.60
2017-12-03T12:56:46.007Z,-0.60
2017-12-03T12:59:56.486Z,-0.60
2017-12-03T13:03:06.569Z,-0.50
2017-12-03T13:06:16.474Z,-0.60
2017-12-03T13:09:27.238Z,-0.70
2017-12-03T13:12:37.238Z,-0.70
2017-12-03T13:15:47.495Z,-0.70
2017-12-03T13:18:57.866Z,-0.70
2017-12-03T13:22:08.353Z,-0.80
2017-12-03T13:25:18.126Z,-0.80
2017-12-03T13:28:28.227Z,-0.80
2017-12-03T13:31:38.059Z,-0.80
2017-12-03T13:34:48.157Z,-0.80
2017-12-03T13:37:58.185Z,-0.80
2017-12-03T13:41:08.498Z,-0.80
2017-12-03T13:44:18.383Z,-0.90
2017-12-03T13:47:28.232Z,-0.90
2017-12-03T13:50:38.854Z,-1.00
2017-12-03T13:53:48.636Z,-1.00
2017-12-03T13:56:58.692Z,-1.00
2017-12-03T14:00:08.288Z,-1.00
2017-12-03T14:03:18.290Z,-1.10
2017-12-03T14:06:28.024Z,-1.10
2017-12-03T14:09:38.623Z,-1.10
2017-12-03T14:12:48.700Z,-1.10
2017-12-03T14:15:59.417Z,-1.10
2017-12-03T14:19:09.552Z,-1.10
2017-12-03T14:22:19.914Z,-1.10
2017-12-03T14:25:30.004Z,-1.10
2017-12-03T14:28:40.090Z,-1.10
2017-12-03T14:31:51.487Z,-1.10
2017-12-03T14:35:02.536Z,-1.20
2017-12-03T14:38:12.918Z,-1.10
2017-12-03T14:41:22.715Z,-1.10
2017-12-03T14:44:32.607Z,-1.10
2017-12-03T14:47:43.099Z,-1.10
2017-12-03T14:50:53.286Z,-1.10
2017-12-03T14:54:03.425Z,-1.20
2017-12-03T14:57:15.084Z,-1.20
2017-12-03T15:00:25.685Z,-1.20
2017-12-03T15:03:35.506Z,-1.20
2017-12-03T15:06:45.333Z,-1.20
2017-12-03T15:09:55.713Z,-1.20
2017-12-03T15:13:07.515Z,-1.40
2017-12-03T15:16:18.775Z,-1.40
2017-12-03T15:19:30.298Z,-1.40
2017-12-03T15:22:41.584Z,-1.40
2017-12-03T15:25:52.825Z,-1.50
2017-12-03T15:29:03.140Z,-1.50
2017-12-03T15:32:13.170Z,-1.50
2017-12-03T15:35:23.056Z,-1.60
2017-12-03T15:38:33.178Z,-1.50
2017-12-03T15:41:43.013Z,-1.50
2017-12-03T15:44:53.001Z,-1.50
2017-12-03T15:48:02.956Z,-1.60
2017-12-03T15:51:12.752Z,-1.60
2017-12-03T15:54:22.647Z,-1.60
2017-12-03T15:57:32.483Z,-1.60
2017-12-03T16:00:42.846Z,-1.70
2017-12-03T16:03:52.496Z,-1.70
2017-12-03T16:07:03.051Z,-1.70
2017-12-03T16:10:13.823Z,-1.70
2017-12-03T16:13:24.004Z,-1.70
2017-12-03T16:16:34.033Z,-1.70
2017-12-03T16:19:44.127Z,-1.80
2017-12-03T16:22:54.533Z,-1.70
2017-12-03T16:26:04.863Z,-1.70
2017-12-03T16:29:15.934Z,-1.70
2017-12-03T16:32:25.593Z,-1.80
2017-12-03T16:35:36.585Z,-1.70
2017-12-03T16:38:47.101Z,-1.70
2017-12-03T16:41:56.897Z,-1.70
2017-12-03T16:45:07.448Z,-1.70
2017-12-03T16:48:17.268Z,-1.70
2017-12-03T16:51:28.328Z,-1.70
2017-12-03T16:54:38.445Z,-1.70
2017-12-03T16:57:48.936Z,-1.80
2017-12-03T17:00:58.975Z,-1.70
2017-12-03T17:04:09.620Z,-1.80
2017-12-03T17:07:19.796Z,-1.80
2017-12-03T17:10:29.906Z,-1.70
2017-12-03T17:13:40.127Z,-1.70
2017-12-03T17:16:49.852Z,-1.80
2017-12-03T17:19:59.743Z,-1.80
2017-12-03T17:23:09.762Z,-1.80
2017-12-03T17:26:19.849Z,-1.80
2017-12-03T17:29:29.539Z,-1.80
2017-12-03T17:32:39.314Z,-1.80
2017-12-03T17:35:49.978Z,-1.80
2017-12-03T17:39:00.391Z,-1.80
2017-12-03T17:42:11.451Z,-1.80
2017-12-03T17:45:21.262Z,-1.90
2017-12-03T17:48:31.983Z,-1.90
2017-12-03T17:51:42.440Z,-1.90
2017-12-03T17:54:52.418Z,-1.80
2017-12-03T17:58:02.306Z,-1.80
2017-12-03T18:01:12.857Z,-1.80
2017-12-03T18:04:23.339Z,-1.80
2017-12-03T18:07:33.236Z,-1.80
2017-12-03T18:10:43.005Z,-1.80
2017-12-03T18:13:53.063Z,-1.80
2017-12-03T18:17:02.746Z,-1.80
2017-12-03T18:20:12.796Z,-1.90
2017-12-03T18:23:22.524Z,-1.90
2017-12-03T18:26:32.711Z,-1.80
2017-12-03T18:29:43.024Z,-1.90
2017-12-03T18:32:53.185Z,-1.90
2017-12-03T18:36:03.598Z,-1.90
2017-12-03T18:39:13.499Z,-1.90
2017-12-03T18:42:24.072Z,-1.80
2017-12-03T18:45:34.045Z,-1.80
2017-12-03T18:48:44.747Z,-1.90
2017-12-03T18:51:54.876Z,-1.90
2017-12-03T18:55:05.049Z,-1.90
2017-12-03T18:58:14.636Z,-1.90
2017-12-03T19:01:25.680Z,-1.80
2017-12-03T19:04:35.998Z,-1.90
2017-12-03T19:07:46.239Z,-1.80
2017-12-03T19:10:55.889Z,-1.80
2017-12-03T19:14:05.707Z,-1.80
2017-12-03T19:17:16.672Z,-1.80
2017-12-03T19:20:27.037Z,-1.80
2017-12-03T19:23:38.449Z,-1.80
2017-12-03T19:26:49.033Z,-1.80
2017-12-03T19:29:58.428Z,-1.80
2017-12-03T19:33:08.915Z,-1.80
2017-12-03T19:36:22.135Z,-1.80
2017-12-03T19:39:33.319Z,-1.80
2017-12-03T19:42:43.554Z,-1.90
2017-12-03T19:45:53.440Z,-1.80
2017-12-03T19:49:03.882Z,-1.70
2017-12-03T19:52:15.320Z,-1.80
2017-12-03T19:55:25.061Z,-1.80
2017-12-03T19:58:35.372Z,-1.80
2017-12-03T20:01:45.512Z,-1.70
2017-12-03T20:04:55.777Z,-1.80
2017-12-03T20:08:06.095Z,-1.70
2017-12-03T20:11:16.205Z,-1.70
2017-12-03T20:14:26.236Z,-1.70
2017-12-03T20:17:35.919Z,-1.70
2017-12-03T20:20:47.414Z,-1.70
2017-12-03T20:23:58.084Z,-1.70
2017-12-03T20:27:07.706Z,-1.70
2017-12-03T20:30:17.535Z,-1.60
2017-12-03T20:33:27.861Z,-1.60
2017-12-03T20:36:39.261Z,-1.60
2017-12-03T20:39:49.401Z,-1.60
2017-12-03T20:42:58.938Z,-1.50
2017-12-03T20:46:08.344Z,-1.50
2017-12-03T20:49:18.626Z,-1.50
2017-12-03T20:52:28.496Z,-1.60
2017-12-03T20:55:38.656Z,-1.60
2017-12-03T20:58:48.976Z,-1.60
2017-12-03T21:01:58.901Z,-1.60
2017-12-03T21:05:08.852Z,-1.60
2017-12-03T21:08:19.516Z,-1.60
2017-12-03T21:11:29.957Z,-1.60
2017-12-03T21:14:40.321Z,-1.60
2017-12-03T21:17:49.789Z,-1.60
2017-12-03T21:21:01.125Z,-1.50
2017-12-03T21:24:11.115Z,-1.50
2017-12-03T21:27:21.113Z,-1.50
2017-12-03T21:30:30.968Z,-1.50
2017-12-03T21:33:41.111Z,-1.50
2017-12-03T21:36:51.779Z,-1.50
2017-12-03T21:40:02.008Z,-1.50
2017-12-03T21:43:12.206Z,-1.50
2017-12-03T21:46:22.782Z,-1.50
2017-12-03T21:49:32.605Z,-1.60
2017-12-03T21:52:42.423Z,-1.50
2017-12-03T21:55:52.165Z,-1.50
2017-12-03T21:59:02.862Z,-1.50
2017-12-03T22:02:13.389Z,-1.50
2017-12-03T22:05:24.069Z,-1.50
2017-12-03T22:08:34.200Z,-1.40
2017-12-03T22:11:44.347Z,-1.40
2017-12-03T22:14:54.916Z,-1.40
2017-12-03T22:18:05.491Z,-1.40
2017-12-03T22:21:15.707Z,-1.40
2017-12-03T22:24:26.600Z,-1.40
2017-12-03T22:27:36.528Z,-1.30
2017-12-03T22:30:46.506Z,-1.30
2017-12-03T22:33:56.799Z,-1.30
2017-12-03T22:37:08.152Z,-1.20
2017-12-03T22:40:18.552Z,-1.30
2017-12-03T22:43:28.449Z,-1.20
2017-12-03T22:46:38.364Z,-1.20
2017-12-03T22:49:48.252Z,-1.20
2017-12-03T22:52:58.374Z,-1.20
2017-12-03T22:56:08.267Z,-1.20
2017-12-03T22:59:18.771Z,-1.10
2017-12-03T23:02:28.909Z,-1.10
2017-12-03T23:05:38.931Z,-1.10
2017-12-03T23:08:48.709Z,-1.10
2017-12-03T23:11:58.585Z,-1.10
2017-12-03T23:15:08.550Z,-1.10
2017-12-03T23:18:18.333Z,-1.00
2017-12-03T23:21:28.161Z,-1.10
2017-12-03T23:24:38.222Z,-1.00
2017-12-03T23:27:47.555Z,-1.00
2017-12-03T23:30:57.069Z,-1.10
2017-12-03T23:34:07.476Z,-1.10
2017-12-03T23:37:17.221Z,-1.10
2017-12-03T23:40:26.822Z,-1.10
2017-12-03T23:43:36.814Z,-1.10
2017-12-03T23:46:46.794Z,-1.10
2017-12-03T23:49:56.705Z,-1.10
2017-12-03T23:53:06.321Z,-1.00
2017-12-03T23:56:16.894Z,-1.00
2017-12-03T23:59:27.606Z,-1.00
